Alapaha, Georgia
Current Conditions -  °F | °C
As of 9:55 AM on Monday 24 Nov 2014 (Local Time) from KTMA Reporting Station
Light Rain Light Rain  
Wind Chill: 69°   Ceiling: 4300
Heat Index: 69°   Visibility: 7mi
Dew Point: 68°   Wind: 6mph
Humidity: 97%   Direction: 180°S
Pressure: 29.88"   Gusts: NA
Location:  31.39°N, 83.22°W
Report Text: KTMA 241455Z AUTO 18005KT 7SM -RA SCT008 OVC043 21/20 A2988 RMK AO2 LTG DSNT SW T02050200
Loading
Personal Weather Stations






























Interactive Weather Map New forecast layout! Learn more

10-Day Weather Forecast

Advertisements
Track Severe Weather on mobile